This is the latest recevied weather packets stored in our database for station/object DL5DI-H. If no packets are shown the sender has not sent any weather packets the latest 10 day(s).
| Time | Temp. | Humidity | Pressure | Rain* | Wind** | Luminosity | Snow |
|---|---|---|---|---|---|---|---|
| 1788285605 | 22.22° C | 61% | 1021.3 hPa | 0 mm | - | - | - |
| 1788285001 | 22.22° C | 60% | 1021.3 hPa | 0 mm | - | - | - |
| 1788284402 | 22.78° C | 58% | 1021 hPa | 0 mm | - | - | - |
| 1788283800 | 22.78° C | 58% | 1021 hPa | 0 mm | - | - | - |
| 1788283202 | 23.33° C | 57% | 1020.9 hPa | 0 mm | - | - | - |
| 1788282601 | 23.89° C | 56% | 1020.9 hPa | 0 mm | - | - | - |
| 1788282001 | 24.44° C | 55% | 1020.9 hPa | 0 mm | - | - | - |
| 1788281402 | 24.44° C | 55% | 1020.9 hPa | 0 mm | - | - | - |
| 1788280801 | 23.89° C | 55% | 1020.9 hPa | 0 mm | - | - | - |
| 1788280202 | 23.33° C | 57% | 1020.9 hPa | 0 mm | - | - | - |
| 1788279600 | 22.78° C | 58% | 1020.9 hPa | 0 mm | - | - | - |
| 1788279002 | 22.78° C | 58% | 1020.9 hPa | 0 mm | - | - | - |
| 1788278400 | 22.78° C | 58% | 1020.9 hPa | 0 mm | - | - | - |
| 1788277801 | 22.78° C | 58% | 1020.9 hPa | 0 mm | - | - | - |
| 1788277201 | 22.78° C | 58% | 1020.9 hPa | 0 mm | - | - | - |
| 1788276602 | 23.33° C | 57% | 1020.9 hPa | 0 mm | - | - | - |
| 1788276000 | 23.33° C | 58% | 1020.8 hPa | 0 mm | - | - | - |
| 1788275400 | 23.33° C | 57% | 1020.8 hPa | 0 mm | - | - | - |
| 1788274802 | 23.89° C | 56% | 1020.8 hPa | 0 mm | - | - | - |
| 1788274202 | 24.44° C | 55% | 1020.6 hPa | 0 mm | - | - | - |
| 1788273602 | 25.56° C | 50% | 1020.5 hPa | 0 mm | - | - | - |
| 1788273001 | 26.11° C | 42% | 1020.5 hPa | 0 mm | - | - | - |
| 1788272402 | 26.11° C | 45% | 1020.4 hPa | 0 mm | - | - | - |
| 1788271801 | 25° C | 45% | 1020.5 hPa | 0 mm | - | - | - |
| 1788271201 | 25.56° C | 44% | 1020.6 hPa | 0 mm | - | - | - |
* Rain latest hour (hover to see other rain measurements)
** Current wind speed in m/s (hover to see current wind gust speed)